sensor_id;sensor_type;location;lat;lon;timestamp;pressure;altitude;pressure_sealevel;temperature;humidity
62548;BME280;48602;45.192;5.722;2023-09-08T00:02:03;99357.34;;;23.00;56.89
62548;BME280;48602;45.192;5.722;2023-09-08T00:04:29;99362.97;;;22.97;56.95
62548;BME280;48602;45.192;5.722;2023-09-08T00:06:54;99360.28;;;22.97;56.68
62548;BME280;48602;45.192;5.722;2023-09-08T00:09:19;99360.44;;;22.95;57.04
62548;BME280;48602;45.192;5.722;2023-09-08T00:11:45;99356.91;;;22.95;56.87
62548;BME280;48602;45.192;5.722;2023-09-08T00:14:10;99362.28;;;22.95;57.41
62548;BME280;48602;45.192;5.722;2023-09-08T00:16:36;99350.94;;;22.91;57.45
62548;BME280;48602;45.192;5.722;2023-09-08T00:19:02;99360.13;;;22.89;57.07
62548;BME280;48602;45.192;5.722;2023-09-08T00:21:27;99357.31;;;22.90;57.12
62548;BME280;48602;45.192;5.722;2023-09-08T00:23:53;99358.16;;;22.91;58.12
62548;BME280;48602;45.192;5.722;2023-09-08T00:26:19;99342.41;;;22.86;57.91
62548;BME280;48602;45.192;5.722;2023-09-08T00:28:45;99354.16;;;22.85;58.28
62548;BME280;48602;45.192;5.722;2023-09-08T00:31:10;99360.63;;;22.83;58.81
62548;BME280;48602;45.192;5.722;2023-09-08T00:33:36;99354.53;;;22.81;58.81
62548;BME280;48602;45.192;5.722;2023-09-08T00:36:02;99357.34;;;22.79;58.52
62548;BME280;48602;45.192;5.722;2023-09-08T00:38:28;99364.59;;;22.79;59.05
62548;BME280;48602;45.192;5.722;2023-09-08T00:40:53;99361.28;;;22.75;58.59
62548;BME280;48602;45.192;5.722;2023-09-08T00:43:18;99366.19;;;22.70;58.69
62548;BME280;48602;45.192;5.722;2023-09-08T00:45:45;99360.22;;;22.67;58.98
62548;BME280;48602;45.192;5.722;2023-09-08T00:48:11;99368.56;;;22.63;58.97
62548;BME280;48602;45.192;5.722;2023-09-08T00:50:38;99369.69;;;22.61;59.28
62548;BME280;48602;45.192;5.722;2023-09-08T00:53:04;99374.34;;;22.59;59.48
62548;BME280;48602;45.192;5.722;2023-09-08T00:55:31;99368.38;;;22.55;59.02
62548;BME280;48602;45.192;5.722;2023-09-08T00:57:57;99363.00;;;22.55;59.21
62548;BME280;48602;45.192;5.722;2023-09-08T01:00:24;99371.06;;;22.55;59.40
62548;BME280;48602;45.192;5.722;2023-09-08T01:02:49;99365.69;;;22.55;59.71
62548;BME280;48602;45.192;5.722;2023-09-08T01:05:15;99370.19;;;22.55;59.55
62548;BME280;48602;45.192;5.722;2023-09-08T01:07:41;99368.63;;;22.52;59.66
62548;BME280;48602;45.192;5.722;2023-09-08T01:10:07;99360.81;;;22.49;59.43
62548;BME280;48602;45.192;5.722;2023-09-08T01:12:33;99361.94;;;22.47;59.31
62548;BME280;48602;45.192;5.722;2023-09-08T01:15:03;99363.75;;;22.46;59.41
62548;BME280;48602;45.192;5.722;2023-09-08T01:17:30;99364.78;;;22.45;59.10
62548;BME280;48602;45.192;5.722;2023-09-08T01:19:56;99358.56;;;22.45;59.66
62548;BME280;48602;45.192;5.722;2023-09-08T01:25:09;99367.59;;;22.44;60.13
62548;BME280;48602;45.192;5.722;2023-09-08T01:27:39;99359.66;;;22.42;59.93
62548;BME280;48602;45.192;5.722;2023-09-08T01:30:07;99361.50;;;22.42;60.04
62548;BME280;48602;45.192;5.722;2023-09-08T01:32:33;99363.31;;;22.41;59.38
62548;BME280;48602;45.192;5.722;2023-09-08T01:34:59;99363.31;;;22.41;59.93
62548;BME280;48602;45.192;5.722;2023-09-08T01:37:26;99361.38;;;22.43;60.14
62548;BME280;48602;45.192;5.722;2023-09-08T01:39:51;99365.03;;;22.42;60.13
62548;BME280;48602;45.192;5.722;2023-09-08T01:42:17;99365.03;;;22.42;60.33
62548;BME280;48602;45.192;5.722;2023-09-08T01:44:42;99369.56;;;22.42;60.27
62548;BME280;48602;45.192;5.722;2023-09-08T01:47:07;99375.78;;;22.42;59.82
62548;BME280;48602;45.192;5.722;2023-09-08T01:49:33;99364.31;;;22.40;60.03
62548;BME280;48602;45.192;5.722;2023-09-08T01:51:58;99371.50;;;22.40;60.14
62548;BME280;48602;45.192;5.722;2023-09-08T01:54:23;99374.31;;;22.38;59.93
62548;BME280;48602;45.192;5.722;2023-09-08T01:56:49;99374.31;;;22.38;60.27
62548;BME280;48602;45.192;5.722;2023-09-08T01:59:16;99376.28;;;22.36;60.30
62548;BME280;48602;45.192;5.722;2023-09-08T02:01:41;99377.41;;;22.34;60.11
62548;BME280;48602;45.192;5.722;2023-09-08T02:04:07;99377.41;;;22.34;60.55
62548;BME280;48602;45.192;5.722;2023-09-08T02:06:32;99379.47;;;22.30;60.53
62548;BME280;48602;45.192;5.722;2023-09-08T02:08:57;99380.47;;;22.29;60.80
62548;BME280;48602;45.192;5.722;2023-09-08T02:11:23;99379.63;;;22.28;60.54
62548;BME280;48602;45.192;5.722;2023-09-08T02:13:48;99370.00;;;22.26;60.83
62548;BME280;48602;45.192;5.722;2023-09-08T02:16:14;99376.22;;;22.26;60.97
62548;BME280;48602;45.192;5.722;2023-09-08T02:18:44;99374.53;;;22.25;60.71
62548;BME280;48602;45.192;5.722;2023-09-08T02:21:09;99377.19;;;22.25;60.66
62548;BME280;48602;45.192;5.722;2023-09-08T02:23:35;99365.72;;;22.23;61.00
62548;BME280;48602;45.192;5.722;2023-09-08T02:26:00;99370.13;;;22.24;60.65
62548;BME280;48602;45.192;5.722;2023-09-08T02:28:26;99369.28;;;22.24;61.18
62548;BME280;48602;45.192;5.722;2023-09-08T02:30:51;99366.97;;;22.19;61.30
62548;BME280;48602;45.192;5.722;2023-09-08T02:33:16;99376.00;;;22.18;61.74
62548;BME280;48602;45.192;5.722;2023-09-08T02:35:43;99373.69;;;22.14;61.51
62548;BME280;48602;45.192;5.722;2023-09-08T02:38:08;99373.81;;;22.12;62.03
62548;BME280;48602;45.192;5.722;2023-09-08T02:40:34;99378.63;;;22.09;61.60
62548;BME280;48602;45.192;5.722;2023-09-08T02:43:00;99375.31;;;22.05;62.21
62548;BME280;48602;45.192;5.722;2023-09-08T02:45:26;99373.63;;;22.04;62.11
62548;BME280;48602;45.192;5.722;2023-09-08T02:47:52;99378.25;;;22.02;62.20
62548;BME280;48602;45.192;5.722;2023-09-08T02:50:17;99379.97;;;22.03;62.30
62548;BME280;48602;45.192;5.722;2023-09-08T02:52:43;99379.13;;;22.03;61.85
62548;BME280;48602;45.192;5.722;2023-09-08T02:55:09;99381.81;;;22.03;62.30
62548;BME280;48602;45.192;5.722;2023-09-08T02:57:34;99380.09;;;22.02;62.13
62548;BME280;48602;45.192;5.722;2023-09-08T03:00:00;99378.38;;;22.01;62.07
62548;BME280;48602;45.192;5.722;2023-09-08T03:02:25;99373.09;;;21.99;61.72
62548;BME280;48602;45.192;5.722;2023-09-08T03:04:51;99374.00;;;22.00;61.53
62548;BME280;48602;45.192;5.722;2023-09-08T03:07:17;99369.47;;;22.00;61.68
62548;BME280;48602;45.192;5.722;2023-09-08T03:09:42;99374.72;;;22.02;61.49
62548;BME280;48602;45.192;5.722;2023-09-08T03:12:08;99378.38;;;22.01;62.14
62548;BME280;48602;45.192;5.722;2023-09-08T03:14:33;99382.91;;;22.00;61.73
62548;BME280;48602;45.192;5.722;2023-09-08T03:16:58;99380.22;;;22.00;61.75
62548;BME280;48602;45.192;5.722;2023-09-08T03:19:24;99386.44;;;22.01;62.26
62548;BME280;48602;45.192;5.722;2023-09-08T03:21:49;99383.00;;;21.99;62.43
62548;BME280;48602;45.192;5.722;2023-09-08T03:24:14;99380.31;;;21.99;62.20
62548;BME280;48602;45.192;5.722;2023-09-08T03:26:40;99381.28;;;21.98;62.49
62548;BME280;48602;45.192;5.722;2023-09-08T03:29:06;99386.66;;;21.98;61.95
62548;BME280;48602;45.192;5.722;2023-09-08T03:31:31;99382.25;;;21.97;62.22
62548;BME280;48602;45.192;5.722;2023-09-08T03:33:57;99385.09;;;21.95;62.41
62548;BME280;48602;45.192;5.722;2023-09-08T03:36:22;99392.31;;;21.94;62.57
62548;BME280;48602;45.192;5.722;2023-09-08T03:38:47;99387.44;;;21.88;61.85
62548;BME280;48602;45.192;5.722;2023-09-08T03:41:13;99391.47;;;21.83;62.31
62548;BME280;48602;45.192;5.722;2023-09-08T03:43:38;99391.97;;;21.77;62.43
62548;BME280;48602;45.192;5.722;2023-09-08T03:46:04;99386.97;;;21.72;62.89
62548;BME280;48602;45.192;5.722;2023-09-08T03:48:29;99390.75;;;21.70;63.02
62548;BME280;48602;45.192;5.722;2023-09-08T03:50:55;99395.53;;;21.66;63.08
62548;BME280;48602;45.192;5.722;2023-09-08T03:53:20;99391.00;;;21.67;63.16
62548;BME280;48602;45.192;5.722;2023-09-08T03:55:45;99397.75;;;21.61;63.34
62548;BME280;48602;45.192;5.722;2023-09-08T03:58:11;99388.22;;;21.57;63.27
62548;BME280;48602;45.192;5.722;2023-09-08T04:00:36;99393.00;;;21.53;63.32
62548;BME280;48602;45.192;5.722;2023-09-08T04:03:02;99393.09;;;21.52;63.38
62548;BME280;48602;45.192;5.722;2023-09-08T04:05:27;99395.91;;;21.50;63.59
62548;BME280;48602;45.192;5.722;2023-09-08T04:07:53;99393.59;;;21.46;63.46
62548;BME280;48602;45.192;5.722;2023-09-08T04:10:18;99396.28;;;21.46;63.48
62548;BME280;48602;45.192;5.722;2023-09-08T04:12:44;99386.66;;;21.43;63.98
62548;BME280;48602;45.192;5.722;2023-09-08T04:15:10;99394.09;;;21.40;63.81
62548;BME280;48602;45.192;5.722;2023-09-08T04:17:36;99389.97;;;21.36;63.75
62548;BME280;48602;45.192;5.722;2023-09-08T04:20:03;99388.25;;;21.35;64.57
62548;BME280;48602;45.192;5.722;2023-09-08T04:22:33;99398.13;;;21.34;64.28
62548;BME280;48602;45.192;5.722;2023-09-08T04:24:59;99400.81;;;21.34;64.27
62548;BME280;48602;45.192;5.722;2023-09-08T04:27:24;99413.47;;;21.32;64.78
62548;BME280;48602;45.192;5.722;2023-09-08T04:29:50;99412.16;;;21.27;64.89
62548;BME280;48602;45.192;5.722;2023-09-08T04:32:15;99405.22;;;21.24;65.56
62548;BME280;48602;45.192;5.722;2023-09-08T04:34:41;99409.09;;;21.20;66.73
62548;BME280;48602;45.192;5.722;2023-09-08T04:37:07;99409.31;;;21.17;66.03
62548;BME280;48602;45.192;5.722;2023-09-08T04:39:34;99404.91;;;21.16;66.83
62548;BME280;48602;45.192;5.722;2023-09-08T04:42:00;99410.50;;;21.13;66.32
62548;BME280;48602;45.192;5.722;2023-09-08T04:44:25;99412.50;;;21.11;66.53
62548;BME280;48602;45.192;5.722;2023-09-08T04:46:52;99408.09;;;21.10;66.72
62548;BME280;48602;45.192;5.722;2023-09-08T04:49:17;99410.78;;;21.10;66.83
62548;BME280;48602;45.192;5.722;2023-09-08T04:51:43;99408.94;;;21.10;67.02
62548;BME280;48602;45.192;5.722;2023-09-08T04:54:09;99413.47;;;21.10;66.49
62548;BME280;48602;45.192;5.722;2023-09-08T04:56:34;99411.63;;;21.10;66.56
62548;BME280;48602;45.192;5.722;2023-09-08T04:59:00;99413.34;;;21.11;66.76
62548;BME280;48602;45.192;5.722;2023-09-08T05:01:26;99412.50;;;21.11;66.98
62548;BME280;48602;45.192;5.722;2023-09-08T05:03:52;99411.63;;;21.10;67.09
62548;BME280;48602;45.192;5.722;2023-09-08T05:06:17;99412.50;;;21.11;67.13
62548;BME280;48602;45.192;5.722;2023-09-08T05:08:43;99417.84;;;21.11;66.78
62548;BME280;48602;45.192;5.722;2023-09-08T05:11:09;99416.25;;;21.08;67.42
62548;BME280;48602;45.192;5.722;2023-09-08T05:13:35;99422.47;;;21.09;67.41
62548;BME280;48602;45.192;5.722;2023-09-08T05:16:01;99426.00;;;21.09;67.14
62548;BME280;48602;45.192;5.722;2023-09-08T05:18:39;99432.09;;;21.11;67.21
62548;BME280;48602;45.192;5.722;2023-09-08T05:21:04;99435.63;;;21.12;67.27
62548;BME280;48602;45.192;5.722;2023-09-08T05:23:30;99434.78;;;21.11;67.26
62548;BME280;48602;45.192;5.722;2023-09-08T05:25:55;99439.41;;;21.09;67.15
62548;BME280;48602;45.192;5.722;2023-09-08T05:28:20;99440.50;;;21.07;67.28
62548;BME280;48602;45.192;5.722;2023-09-08T05:30:46;99444.28;;;21.04;67.54
62548;BME280;48602;45.192;5.722;2023-09-08T05:33:11;99452.56;;;21.01;68.02
62548;BME280;48602;45.192;5.722;2023-09-08T05:35:37;99456.44;;;20.97;67.08
62548;BME280;48602;45.192;5.722;2023-09-08T05:38:02;99450.34;;;20.95;67.20
62548;BME280;48602;45.192;5.722;2023-09-08T05:40:27;99457.56;;;20.95;67.47
62548;BME280;48602;45.192;5.722;2023-09-08T05:42:53;99457.66;;;20.93;67.60
62548;BME280;48602;45.192;5.722;2023-09-08T05:45:18;99451.56;;;20.91;67.19
62548;BME280;48602;45.192;5.722;2023-09-08T05:47:44;99462.16;;;20.93;67.67
62548;BME280;48602;45.192;5.722;2023-09-08T05:50:09;99454.72;;;20.96;68.08
62548;BME280;48602;45.192;5.722;2023-09-08T05:52:36;99458.88;;;21.00;67.08
62548;BME280;48602;45.192;5.722;2023-09-08T05:55:01;99465.84;;;21.03;67.56
62548;BME280;48602;45.192;5.722;2023-09-08T05:57:26;99462.06;;;21.05;68.07
62548;BME280;48602;45.192;5.722;2023-09-08T05:59:53;99457.34;;;21.09;68.28
62548;BME280;48602;45.192;5.722;2023-09-08T06:02:18;99462.56;;;21.10;68.34
62548;BME280;48602;45.192;5.722;2023-09-08T06:04:44;99471.22;;;21.14;67.57
62548;BME280;48602;45.192;5.722;2023-09-08T06:07:09;99470.84;;;21.18;67.89
62548;BME280;48602;45.192;5.722;2023-09-08T06:09:34;99466.88;;;21.24;67.55
62548;BME280;48602;45.192;5.722;2023-09-08T06:12:00;99465.78;;;21.27;67.33
62548;BME280;48602;45.192;5.722;2023-09-08T06:14:25;99470.78;;;21.31;67.11
62548;BME280;48602;45.192;5.722;2023-09-08T06:16:51;99465.19;;;21.34;66.59
62548;BME280;48602;45.192;5.722;2023-09-08T06:19:16;99468.47;;;21.38;66.56
62548;BME280;48602;45.192;5.722;2023-09-08T06:21:41;99476.28;;;21.41;65.76
62548;BME280;48602;45.192;5.722;2023-09-08T06:24:07;99468.97;;;21.43;65.42
62548;BME280;48602;45.192;5.722;2023-09-08T06:26:33;99471.16;;;21.49;64.82
62548;BME280;48602;45.192;5.722;2023-09-08T06:28:58;99475.44;;;21.51;64.29
62548;BME280;48602;45.192;5.722;2023-09-08T06:31:23;99469.81;;;21.54;64.21
62548;BME280;48602;45.192;5.722;2023-09-08T06:33:49;99469.81;;;21.54;63.94
62548;BME280;48602;45.192;5.722;2023-09-08T06:36:18;99475.81;;;21.58;64.16
62548;BME280;48602;45.192;5.722;2023-09-08T06:38:43;99476.25;;;21.63;63.69
62548;BME280;48602;45.192;5.722;2023-09-08T06:41:09;99472.25;;;21.69;63.75
62548;BME280;48602;45.192;5.722;2023-09-08T06:43:35;99470.19;;;21.72;63.55
62548;BME280;48602;45.192;5.722;2023-09-08T06:46:01;99463.59;;;21.76;63.64
62548;BME280;48602;45.192;5.722;2023-09-08T06:48:26;99463.47;;;21.78;63.64
62548;BME280;48602;45.192;5.722;2023-09-08T06:50:55;99466.63;;;21.83;63.44
62548;BME280;48602;45.192;5.722;2023-09-08T06:53:24;99469.69;;;21.89;63.12
62548;BME280;48602;45.192;5.722;2023-09-08T06:55:50;99458.41;;;21.95;63.21
62548;BME280;48602;45.192;5.722;2023-09-08T06:58:15;99460.66;;;22.02;63.02
62548;BME280;48602;45.192;5.722;2023-09-08T07:00:41;99464.78;;;22.06;62.96
62548;BME280;48602;45.192;5.722;2023-09-08T07:03:06;99460.16;;;22.08;62.87
62548;BME280;48602;45.192;5.722;2023-09-08T07:05:33;99457.06;;;22.12;62.72
62548;BME280;48602;45.192;5.722;2023-09-08T07:07:59;99458.28;;;22.19;62.52
62548;BME280;48602;45.192;5.722;2023-09-08T07:10:24;99463.28;;;22.24;63.34
62548;BME280;48602;45.192;5.722;2023-09-08T07:12:49;99464.75;;;22.28;62.60
62548;BME280;48602;45.192;5.722;2023-09-08T07:15:15;99468.84;;;22.32;62.58
62548;BME280;48602;45.192;5.722;2023-09-08T07:17:40;99464.09;;;22.36;62.41
62548;BME280;48602;45.192;5.722;2023-09-08T07:20:07;99452.97;;;22.40;62.63
62548;BME280;48602;45.192;5.722;2023-09-08T07:22:33;99464.03;;;22.47;62.87
62548;BME280;48602;45.192;5.722;2023-09-08T07:24:58;99459.00;;;22.53;63.14
62548;BME280;48602;45.192;5.722;2023-09-08T07:27:24;99464.75;;;22.60;63.61
62548;BME280;48602;45.192;5.722;2023-09-08T07:29:49;99454.31;;;22.67;63.43
62548;BME280;48602;45.192;5.722;2023-09-08T07:32:16;99458.06;;;22.75;63.51
62548;BME280;48602;45.192;5.722;2023-09-08T07:34:41;99462.94;;;22.81;63.34
62548;BME280;48602;45.192;5.722;2023-09-08T07:37:07;99459.84;;;22.86;63.06
62548;BME280;48602;45.192;5.722;2023-09-08T07:39:32;99456.66;;;22.92;63.05
62548;BME280;48602;45.192;5.722;2023-09-08T07:41:58;99453.41;;;22.98;63.22
62548;BME280;48602;45.192;5.722;2023-09-08T07:44:24;99454.75;;;23.04;62.11
62548;BME280;48602;45.192;5.722;2023-09-08T07:46:49;99456.06;;;23.09;62.82
62548;BME280;48602;45.192;5.722;2023-09-08T07:49:17;99456.50;;;23.14;62.71
62548;BME280;48602;45.192;5.722;2023-09-08T07:51:44;99461.22;;;23.22;62.68
62548;BME280;48602;45.192;5.722;2023-09-08T07:54:10;99448.22;;;23.27;61.91
62548;BME280;48602;45.192;5.722;2023-09-08T07:56:36;99449.50;;;23.32;61.26
62548;BME280;48602;45.192;5.722;2023-09-08T07:59:01;99454.50;;;23.37;61.54
62548;BME280;48602;45.192;5.722;2023-09-08T08:01:27;99449.56;;;23.42;61.45
62548;BME280;48602;45.192;5.722;2023-09-08T08:03:52;99446.47;;;23.47;61.28
62548;BME280;48602;45.192;5.722;2023-09-08T08:06:17;99452.19;;;23.53;61.01
62548;BME280;48602;45.192;5.722;2023-09-08T08:08:43;99452.53;;;23.60;60.64
62548;BME280;48602;45.192;5.722;2023-09-08T08:11:11;99452.94;;;23.65;60.34
62548;BME280;48602;45.192;5.722;2023-09-08T08:13:36;99446.72;;;23.64;59.78
62548;BME280;48602;45.192;5.722;2023-09-08T08:16:01;99451.81;;;23.67;59.82
62548;BME280;48602;45.192;5.722;2023-09-08T08:18:27;99450.56;;;23.72;60.05
62548;BME280;48602;45.192;5.722;2023-09-08T08:20:53;99444.78;;;23.76;59.88
62548;BME280;48602;45.192;5.722;2023-09-08T08:23:18;99453.28;;;23.81;59.12
62548;BME280;48602;45.192;5.722;2023-09-08T08:25:43;99449.34;;;23.85;58.85
62548;BME280;48602;45.192;5.722;2023-09-08T08:28:09;99448.06;;;23.89;59.21
62548;BME280;48602;45.192;5.722;2023-09-08T08:30:34;99445.13;;;23.92;58.83
62548;BME280;48602;45.192;5.722;2023-09-08T08:33:01;99443.69;;;23.98;58.42
62548;BME280;48602;45.192;5.722;2023-09-08T08:35:29;99441.44;;;24.03;58.62
62548;BME280;48602;45.192;5.722;2023-09-08T08:37:57;99437.22;;;24.10;58.38
62548;BME280;48602;45.192;5.722;2023-09-08T08:40:23;99440.03;;;24.18;58.39
62548;BME280;48602;45.192;5.722;2023-09-08T08:42:54;99442.09;;;24.26;57.58
62548;BME280;48602;45.192;5.722;2023-09-08T08:45:23;99439.78;;;24.31;57.71
62548;BME280;48602;45.192;5.722;2023-09-08T08:47:49;99440.94;;;24.38;56.91
62548;BME280;48602;45.192;5.722;2023-09-08T08:50:15;99433.16;;;24.45;56.97
62548;BME280;48602;45.192;5.722;2023-09-08T08:52:43;99435.84;;;24.54;56.68
62548;BME280;48602;45.192;5.722;2023-09-08T08:55:09;99442.53;;;24.60;56.41
62548;BME280;48602;45.192;5.722;2023-09-08T08:57:37;99440.38;;;24.63;56.49
62548;BME280;48602;45.192;5.722;2023-09-08T09:00:04;99431.72;;;24.69;56.35
62548;BME280;48602;45.192;5.722;2023-09-08T09:02:36;99431.44;;;24.73;56.37
62548;BME280;48602;45.192;5.722;2023-09-08T09:05:04;99422.06;;;24.77;56.29
62548;BME280;48602;45.192;5.722;2023-09-08T09:07:31;99427.72;;;24.83;56.00
62548;BME280;48602;45.192;5.722;2023-09-08T09:09:57;99420.06;;;24.88;56.04
62548;BME280;48602;45.192;5.722;2023-09-08T09:12:22;99429.44;;;24.94;55.04
62548;BME280;48602;45.192;5.722;2023-09-08T09:14:48;99418.53;;;24.95;54.83
62548;BME280;48602;45.192;5.722;2023-09-08T09:17:14;99412.81;;;24.98;54.99
62548;BME280;48602;45.192;5.722;2023-09-08T09:19:40;99416.78;;;25.04;54.98
62548;BME280;48602;45.192;5.722;2023-09-08T09:22:05;99418.06;;;25.10;54.76
62548;BME280;48602;45.192;5.722;2023-09-08T09:24:39;99416.31;;;25.18;54.31
62548;BME280;48602;45.192;5.722;2023-09-08T09:27:12;99413.88;;;25.25;54.35
62548;BME280;48602;45.192;5.722;2023-09-08T09:29:48;99415.81;;;25.32;54.28
62548;BME280;48602;45.192;5.722;2023-09-08T09:32:15;99410.69;;;25.39;54.10
62548;BME280;48602;45.192;5.722;2023-09-08T09:34:53;99410.13;;;25.45;53.65
62548;BME280;48602;45.192;5.722;2023-09-08T09:37:20;99406.81;;;25.51;53.29
62548;BME280;48602;45.192;5.722;2023-09-08T09:39:54;99408.06;;;25.57;53.11
62548;BME280;48602;45.192;5.722;2023-09-08T09:42:20;99400.53;;;25.60;53.78
62548;BME280;48602;45.192;5.722;2023-09-08T09:44:49;99396.38;;;25.66;52.94
62548;BME280;48602;45.192;5.722;2023-09-08T09:47:16;99391.38;;;25.71;53.14
62548;BME280;48602;45.192;5.722;2023-09-08T09:49:43;99389.78;;;25.78;53.02
62548;BME280;48602;45.192;5.722;2023-09-08T09:52:11;99390.16;;;25.83;52.62
62548;BME280;48602;45.192;5.722;2023-09-08T09:54:40;99385.16;;;25.88;52.79
62548;BME280;48602;45.192;5.722;2023-09-08T09:57:06;99386.28;;;25.95;52.63
62548;BME280;48602;45.192;5.722;2023-09-08T09:59:32;99379.09;;;26.04;52.29
62548;BME280;48602;45.192;5.722;2023-09-08T10:01:59;99382.72;;;26.13;52.20
62548;BME280;48602;45.192;5.722;2023-09-08T10:04:25;99378.38;;;26.20;51.71
62548;BME280;48602;45.192;5.722;2023-09-08T10:06:52;99384.88;;;26.27;51.65
62548;BME280;48602;45.192;5.722;2023-09-08T10:09:18;99385.13;;;26.33;51.26
62548;BME280;48602;45.192;5.722;2023-09-08T10:11:48;99380.81;;;26.40;50.67
62548;BME280;48602;45.192;5.722;2023-09-08T10:14:18;99378.34;;;26.47;51.11
62548;BME280;48602;45.192;5.722;2023-09-08T10:16:45;99378.72;;;26.52;50.72
62548;BME280;48602;45.192;5.722;2023-09-08T10:19:14;99372.69;;;26.58;50.46
62548;BME280;48602;45.192;5.722;2023-09-08T10:21:46;99370.19;;;26.65;50.24
62548;BME280;48602;45.192;5.722;2023-09-08T10:24:32;99370.41;;;26.71;49.92
62548;BME280;48602;45.192;5.722;2023-09-08T10:27:04;99367.94;;;26.78;49.08
62548;BME280;48602;45.192;5.722;2023-09-08T10:29:32;99366.13;;;26.87;49.29
62548;BME280;48602;45.192;5.722;2023-09-08T10:31:58;99365.22;;;26.96;49.05
62548;BME280;48602;45.192;5.722;2023-09-08T10:34:25;99352.03;;;27.01;49.00
62548;BME280;48602;45.192;5.722;2023-09-08T10:36:52;99354.94;;;27.07;48.32
62548;BME280;48602;45.192;5.722;2023-09-08T10:39:28;99360.06;;;27.10;46.34
62548;BME280;48602;45.192;5.722;2023-09-08T10:47:32;99338.00;;;27.31;44.55
62548;BME280;48602;45.192;5.722;2023-09-08T10:49:59;99350.69;;;27.39;44.52
62548;BME280;48602;45.192;5.722;2023-09-08T10:52:25;99352.59;;;27.47;45.29
62548;BME280;48602;45.192;5.722;2023-09-08T10:54:52;99338.56;;;27.51;43.64
62548;BME280;48602;45.192;5.722;2023-09-08T10:57:20;99331.50;;;27.58;42.40
62548;BME280;48602;45.192;5.722;2023-09-08T10:59:53;99333.06;;;27.69;40.53
62548;BME280;48602;45.192;5.722;2023-09-08T11:04:57;99324.47;;;27.90;40.94
62548;BME280;48602;45.192;5.722;2023-09-08T11:07:24;99322.44;;;28.00;40.45
62548;BME280;48602;45.192;5.722;2023-09-08T11:09:50;99326.03;;;28.08;39.76
62548;BME280;48602;45.192;5.722;2023-09-08T11:12:16;99329.56;;;28.17;39.33
62548;BME280;48602;45.192;5.722;2023-09-08T11:14:43;99319.63;;;28.26;39.59
62548;BME280;48602;45.192;5.722;2023-09-08T11:17:08;99336.72;;;28.34;39.17
62548;BME280;48602;45.192;5.722;2023-09-08T11:19:48;99323.19;;;28.42;38.35
62548;BME280;48602;45.192;5.722;2023-09-08T11:22:15;99310.63;;;28.49;37.51
62548;BME280;48602;45.192;5.722;2023-09-08T11:24:42;99305.53;;;28.55;38.15
62548;BME280;48602;45.192;5.722;2023-09-08T11:27:08;99319.44;;;28.60;37.90
62548;BME280;48602;45.192;5.722;2023-09-08T11:29:34;99307.22;;;28.64;37.03
62548;BME280;48602;45.192;5.722;2023-09-08T11:31:59;99315.00;;;28.67;36.89
62548;BME280;48602;45.192;5.722;2023-09-08T11:34:25;99306.34;;;28.71;36.17
62548;BME280;48602;45.192;5.722;2023-09-08T11:36:51;99297.69;;;28.76;36.63
62548;BME280;48602;45.192;5.722;2023-09-08T11:39:18;99292.63;;;28.81;36.36
62548;BME280;48602;45.192;5.722;2023-09-08T11:41:43;99296.84;;;28.83;37.07
62548;BME280;48602;45.192;5.722;2023-09-08T11:44:09;99312.78;;;28.87;37.05
62548;BME280;48602;45.192;5.722;2023-09-08T11:46:34;99292.44;;;28.91;37.08
62548;BME280;48602;45.192;5.722;2023-09-08T11:49:00;99292.94;;;28.94;37.70
62548;BME280;48602;45.192;5.722;2023-09-08T11:51:26;99286.16;;;28.98;37.36
62548;BME280;48602;45.192;5.722;2023-09-08T11:53:52;99274.06;;;29.01;38.27
62548;BME280;48602;45.192;5.722;2023-09-08T11:56:18;99288.97;;;29.05;37.64
62548;BME280;48602;45.192;5.722;2023-09-08T11:58:44;99278.81;;;29.07;37.71
62548;BME280;48602;45.192;5.722;2023-09-08T12:01:10;99267.75;;;29.08;38.35
62548;BME280;48602;45.192;5.722;2023-09-08T12:03:51;99259.78;;;29.15;38.42
62548;BME280;48602;45.192;5.722;2023-09-08T12:06:17;99268.03;;;29.22;37.85
62548;BME280;48602;45.192;5.722;2023-09-08T12:08:42;99255.81;;;29.26;38.44
62548;BME280;48602;45.192;5.722;2023-09-08T12:11:09;99270.56;;;29.31;37.79
62548;BME280;48602;45.192;5.722;2023-09-08T12:13:35;99270.00;;;29.36;37.97
62548;BME280;48602;45.192;5.722;2023-09-08T12:16:00;99255.09;;;29.40;37.88
62548;BME280;48602;45.192;5.722;2023-09-08T12:18:39;99249.28;;;29.43;37.54
62548;BME280;48602;45.192;5.722;2023-09-08T12:21:05;99247.91;;;29.47;37.90
62548;BME280;48602;45.192;5.722;2023-09-08T12:23:31;99241.09;;;29.51;37.39
62548;BME280;48602;45.192;5.722;2023-09-08T12:25:57;99249.72;;;29.55;36.46
62548;BME280;48602;45.192;5.722;2023-09-08T12:28:22;99245.63;;;29.59;35.97
62548;BME280;48602;45.192;5.722;2023-09-08T12:30:51;99237.97;;;29.62;36.30
62548;BME280;48602;45.192;5.722;2023-09-08T12:33:19;99237.91;;;29.70;36.27
62548;BME280;48602;45.192;5.722;2023-09-08T12:35:46;99236.53;;;29.74;36.20
62548;BME280;48602;45.192;5.722;2023-09-08T12:38:13;99221.72;;;29.77;36.08
62548;BME280;48602;45.192;5.722;2023-09-08T12:40:39;99234.13;;;29.79;36.30
62548;BME280;48602;45.192;5.722;2023-09-08T12:43:05;99232.53;;;29.85;35.41
62548;BME280;48602;45.192;5.722;2023-09-08T12:45:31;99230.47;;;29.87;35.01
62548;BME280;48602;45.192;5.722;2023-09-08T12:48:00;99236.56;;;29.89;34.70
62548;BME280;48602;45.192;5.722;2023-09-08T12:50:31;99226.00;;;29.94;34.86
62548;BME280;48602;45.192;5.722;2023-09-08T12:52:57;99231.13;;;29.97;33.75
62548;BME280;48602;45.192;5.722;2023-09-08T12:55:23;99222.97;;;29.97;33.34
62548;BME280;48602;45.192;5.722;2023-09-08T12:57:49;99221.09;;;29.98;33.93
62548;BME280;48602;45.192;5.722;2023-09-08T13:00:15;99228.22;;;29.99;33.32
62548;BME280;48602;45.192;5.722;2023-09-08T13:02:41;99213.78;;;29.98;35.14
62548;BME280;48602;45.192;5.722;2023-09-08T13:05:09;99206.06;;;30.02;34.90
62548;BME280;48602;45.192;5.722;2023-09-08T13:07:34;99213.03;;;30.04;34.15